Terminal Aerodrome Forecast
Issued by NWS

Home | Current Version | Previous Version | Text Only | Print | Product List | Glossary On
Versions: 1 2 3 4 5 6 7 8 9 10 11 12 13 14 15
000
FTUS45 KRIW 061725
TAFLND
TAF
KLND 061725Z 0618/0718 VRB06KT P6SM SKC
     FM062100 VRB06KT P6SM SCT050 BKN100
     FM070300 VRB06KT P6SM SCT020 BKN030
     FM070600 VRB06KT 5SM -SN OVC020
     FM071700 VRB06KT P6SM BKN060=

USA.gov is the U.S. government's official web portal to all federal, state and local government web resources and services.